Time;durP1;ratioP1;P1;durP2;ratioP2;P2;SDS_P1;SDS_P2;PMS_P1;PMS_P2;Temp;Humidity;BMP_temperature;BMP_pressure;BME280_temperature;BME280_humidity;BME280_pressure;Samples;Min_cycle;Max_cycle;Signal;HPM_P1;HPM_P2
2023/04/14 00:10:00;;;;;;;0.60;0.20;;;11.70;96.70;;;;;;5059179;28;20051;-74
2023/04/14 00:12:28;;;;;;;1.83;0.20;;;11.60;96.70;;;;;;5055755;28;20121;-75
2023/04/14 00:14:56;;;;;;;1.00;0.20;;;11.60;96.70;;;;;;5057433;28;20040;-75
2023/04/14 01:12:30;;;;;;;2.50;0.40;;;12.40;96.70;;;;;;5043944;28;20059;-75
2023/04/14 01:15:11;;;;;;;3.17;0.30;;;12.40;96.70;;;;;;5053930;28;20055;-76
2023/04/14 01:18:01;;;;;;;1.55;0.22;;;12.30;96.70;;;;;;5056412;28;20052;-76
2023/04/14 01:20:49;;;;;;;1.65;0.22;;;12.30;96.70;;;;;;5054027;28;20559;-76
2023/04/14 01:23:51;;;;;;;0.90;0.30;;;12.30;96.70;;;;;;5055740;28;20637;-75
2023/04/14 01:26:44;;;;;;;0.57;0.20;;;12.40;96.70;;;;;;5059948;28;20086;-76
2023/04/14 01:30:01;;;;;;;1.75;0.28;;;12.40;96.70;;;;;;5057571;28;20047;-75
2023/04/14 01:33:09;;;;;;;1.10;0.20;;;12.20;96.70;;;;;;5056810;28;20127;-76
2023/04/14 01:36:07;;;;;;;0.70;0.20;;;12.00;96.70;;;;;;5043701;28;20056;-76
2023/04/14 01:38:51;;;;;;;1.13;0.40;;;12.00;96.70;;;;;;5053661;28;20036;-76
2023/04/14 01:41:22;;;;;;;4.57;1.15;;;12.10;96.70;;;;;;5056571;28;20148;-76
2023/04/14 01:43:55;;;;;;;0.60;0.13;;;12.00;96.70;;;;;;5053086;28;20039;-75
2023/04/14 01:46:25;;;;;;;1.27;0.20;;;12.00;96.70;;;;;;5056239;28;20140;-76
2023/04/14 02:31:11;;;;;;;0.28;0.10;;;11.50;96.70;;;;;;5060698;28;20529;-75
2023/04/14 02:33:45;;;;;;;2.65;0.30;;;11.50;96.70;;;;;;5041781;28;20052;-75
2023/04/14 02:36:17;;;;;;;0.95;0.30;;;11.40;96.70;;;;;;5057165;28;20106;-75
2023/04/14 02:51:27;;;;;;;1.67;0.30;;;11.30;96.70;;;;;;5057047;28;20052;-76
2023/04/14 02:53:55;;;;;;;2.10;0.28;;;11.30;96.70;;;;;;5039320;28;20056;-74
2023/04/14 02:56:37;;;;;;;0.95;0.20;;;11.20;96.70;;;;;;5057282;28;20051;-75
2023/04/14 02:59:06;;;;;;;2.13;0.30;;;11.10;96.70;;;;;;5056750;28;20060;-75
2023/04/14 03:01:38;;;;;;;1.10;0.28;;;11.10;96.70;;;;;;5055277;28;20041;-75
2023/04/14 03:04:06;;;;;;;0.77;0.20;;;11.00;96.70;;;;;;5053263;28;20562;-75
2023/04/14 03:06:39;;;;;;;1.55;0.40;;;11.10;96.70;;;;;;5058936;28;20036;-75
2023/04/14 03:25:56;;;;;;;2.13;0.30;;;11.00;96.70;;;;;;5053308;28;20059;-75
2023/04/14 03:28:31;;;;;;;2.95;0.43;;;11.20;96.70;;;;;;5051997;28;20040;-74
2023/04/14 03:31:04;;;;;;;0.65;0.20;;;11.20;96.70;;;;;;5051096;28;20131;-74
2023/04/14 03:33:54;;;;;;;0.77;0.20;;;11.30;96.70;;;;;;5041228;28;20041;-75
2023/04/14 03:36:28;;;;;;;0.57;0.20;;;11.30;96.70;;;;;;5050316;28;20060;-74
2023/04/14 03:39:01;;;;;;;0.22;0.10;;;11.30;96.70;;;;;;5045009;28;20143;-75
2023/04/14 03:41:36;;;;;;;1.15;0.20;;;11.20;96.70;;;;;;5050278;28;20072;-74
2023/04/14 03:44:09;;;;;;;2.25;0.40;;;11.30;96.70;;;;;;5069354;28;20044;-74
2023/04/14 03:59:17;;;;;;;1.92;0.30;;;10.40;96.70;;;;;;5059586;28;20059;-74
2023/04/14 04:01:47;;;;;;;1.73;0.47;;;10.50;96.70;;;;;;5058715;28;20776;-75
2023/04/14 04:04:17;;;;;;;1.30;0.30;;;10.30;96.70;;;;;;5051580;28;20156;-75
2023/04/14 04:06:48;;;;;;;1.10;0.30;;;9.70;96.70;;;;;;5057198;28;20445;-74
2023/04/14 04:09:18;;;;;;;0.68;0.28;;;9.60;96.70;;;;;;5053145;28;20040;-73
2023/04/14 04:11:48;;;;;;;0.75;0.30;;;10.00;96.70;;;;;;5061208;28;20075;-74
2023/04/14 04:14:21;;;;;;;3.45;0.30;;;10.30;96.70;;;;;;5060192;28;20686;-74
2023/04/14 04:25:17;;;;;;;2.05;0.60;;;10.60;96.70;;;;;;5061632;28;20039;-74
2023/04/14 04:27:54;;;;;;;1.13;0.40;;;10.70;96.70;;;;;;5060387;28;20045;-74
2023/04/14 04:30:26;;;;;;;1.83;0.55;;;10.70;96.70;;;;;;5057683;28;20075;-74
2023/04/14 04:32:55;;;;;;;2.15;0.45;;;10.50;96.70;;;;;;5057121;28;20049;-74
2023/04/14 04:35:23;;;;;;;2.35;0.50;;;9.90;96.70;;;;;;5058135;28;20494;-74
2023/04/14 04:37:53;;;;;;;2.10;0.47;;;9.70;96.70;;;;;;5058727;28;20094;-73
2023/04/14 04:40:21;;;;;;;2.72;0.50;;;9.60;96.70;;;;;;5056177;28;20410;-74
2023/04/14 04:42:51;;;;;;;0.70;0.40;;;9.40;96.70;;;;;;5047491;28;20040;-74
2023/04/14 04:45:41;;;;;;;1.67;0.40;;;9.50;96.70;;;;;;5059262;28;20040;-74
2023/04/14 04:48:09;;;;;;;1.60;0.43;;;9.60;96.70;;;;;;5060349;28;20072;-74
2023/04/14 04:50:39;;;;;;;2.03;0.45;;;10.00;96.70;;;;;;5067195;28;20046;-74
2023/04/14 04:53:08;;;;;;;1.35;0.30;;;10.20;96.70;;;;;;5059101;28;20079;-73
2023/04/14 04:55:36;;;;;;;1.95;0.63;;;9.90;96.70;;;;;;5044180;28;20479;-74
2023/04/14 04:58:04;;;;;;;1.05;0.40;;;9.70;96.70;;;;;;5061051;28;20071;-74
2023/04/14 05:00:35;;;;;;;2.22;0.70;;;9.70;96.70;;;;;;5058181;28;20037;-73
2023/04/14 05:03:03;;;;;;;1.25;0.50;;;9.90;96.70;;;;;;5059506;28;20418;-74
2023/04/14 05:05:35;;;;;;;1.35;0.20;;;10.00;96.70;;;;;;5058302;28;20060;-74
2023/04/14 05:08:04;;;;;;;0.52;0.28;;;10.20;96.70;;;;;;5060624;28;20812;-74
2023/04/14 05:10:34;;;;;;;2.10;0.43;;;10.30;96.70;;;;;;5052204;28;20051;-74
2023/04/14 05:13:02;;;;;;;0.95;0.40;;;10.40;96.70;;;;;;5058067;28;20631;-74
2023/04/14 05:15:31;;;;;;;2.80;0.52;;;10.50;96.70;;;;;;5055590;28;20771;-74
2023/04/14 05:18:00;;;;;;;2.28;0.50;;;10.50;96.70;;;;;;5060445;28;20040;-74
2023/04/14 05:20:28;;;;;;;2.67;0.70;;;10.50;96.70;;;;;;5054640;28;20264;-73
2023/04/14 05:22:56;;;;;;;1.50;0.50;;;10.60;96.70;;;;;;5054241;28;20064;-74
2023/04/14 05:25:25;;;;;;;3.00;1.05;;;10.30;96.70;;;;;;5062572;28;20037;-74
2023/04/14 05:27:53;;;;;;;3.42;0.85;;;9.90;96.70;;;;;;5061801;28;20051;-74
2023/04/14 05:30:20;;;;;;;2.47;0.73;;;10.00;96.70;;;;;;5054028;28;20106;-74
2023/04/14 05:32:49;;;;;;;2.03;0.60;;;10.20;96.70;;;;;;5058112;28;20049;-74
2023/04/14 05:35:18;;;;;;;3.17;0.70;;;10.50;96.70;;;;;;5042432;28;20039;-74
2023/04/14 05:37:46;;;;;;;2.00;0.65;;;10.60;96.70;;;;;;5053311;28;20546;-75
2023/04/14 05:40:14;;;;;;;1.45;0.55;;;10.50;96.70;;;;;;5055905;28;20037;-74
2023/04/14 05:42:42;;;;;;;2.10;0.50;;;10.40;96.70;;;;;;5060464;28;20536;-74
2023/04/14 05:45:11;;;;;;;2.47;0.40;;;10.60;96.70;;;;;;5057894;28;20473;-74
2023/04/14 05:47:39;;;;;;;1.70;0.55;;;10.80;96.70;;;;;;5059142;28;20466;-74
2023/04/14 05:50:08;;;;;;;1.50;0.70;;;10.90;96.70;;;;;;5046943;28;20052;-74
2023/04/14 05:52:37;;;;;;;2.90;0.68;;;10.80;96.70;;;;;;5057335;28;20040;-74
2023/04/14 05:55:06;;;;;;;2.42;0.63;;;10.80;96.70;;;;;;5059352;28;20074;-74
2023/04/14 05:57:34;;;;;;;3.17;0.70;;;10.80;96.70;;;;;;5063024;28;20099;-73
2023/04/14 06:00:03;;;;;;;2.53;0.77;;;10.80;96.70;;;;;;5055995;28;20049;-74
2023/04/14 06:02:39;;;;;;;1.38;0.68;;;10.70;96.70;;;;;;5057442;28;20040;-73
2023/04/14 06:05:08;;;;;;;2.47;0.70;;;10.80;96.70;;;;;;5038362;28;20125;-74
2023/04/14 06:07:41;;;;;;;2.58;0.80;;;10.80;96.70;;;;;;5055095;28;20041;-74
2023/04/14 06:10:10;;;;;;;2.42;0.90;;;10.70;96.70;;;;;;5054380;28;20101;-74
2023/04/14 06:12:38;;;;;;;2.30;0.60;;;10.70;96.70;;;;;;5061015;28;20037;-74
2023/04/14 06:15:07;;;;;;;2.95;1.15;;;10.70;96.70;;;;;;5060648;28;20625;-75
2023/04/14 06:17:35;;;;;;;3.80;1.40;;;10.60;96.70;;;;;;5059926;28;20044;-74
2023/04/14 06:20:03;;;;;;;3.05;1.63;;;10.50;96.70;;;;;;5052259;28;20560;-74
2023/04/14 06:22:31;;;;;;;3.67;1.42;;;10.50;96.70;;;;;;5053413;28;20099;-74
2023/04/14 06:25:01;;;;;;;2.65;1.13;;;10.60;96.70;;;;;;5063190;28;20091;-73
2023/04/14 06:27:29;;;;;;;2.90;1.50;;;10.60;96.70;;;;;;5054531;28;20544;-74
2023/04/14 06:29:59;;;;;;;4.38;1.30;;;10.60;96.70;;;;;;5055188;28;20151;-74
2023/04/14 06:32:27;;;;;;;3.88;1.20;;;10.50;96.70;;;;;;5052524;28;20045;-74
2023/04/14 06:34:55;;;;;;;4.82;1.80;;;10.70;96.70;;;;;;5042513;28;20053;-74
2023/04/14 06:37:23;;;;;;;5.88;1.70;;;10.80;96.70;;;;;;5054319;28;20044;-75
2023/04/14 06:39:51;;;;;;;7.15;2.00;;;10.90;96.70;;;;;;5069226;28;20105;-74
2023/04/14 06:42:20;;;;;;;6.20;2.28;;;10.90;96.70;;;;;;5048857;28;20517;-74
2023/04/14 06:44:48;;;;;;;5.38;1.80;;;11.00;96.70;;;;;;5059923;28;20080;-74
2023/04/14 06:47:18;;;;;;;5.18;1.77;;;11.10;96.70;;;;;;5060163;28;20039;-74
2023/04/14 06:49:46;;;;;;;3.75;1.45;;;11.30;96.70;;;;;;5067456;28;20043;-74
2023/04/14 06:52:14;;;;;;;3.83;1.33;;;11.10;96.70;;;;;;5066522;28;20036;-74
2023/04/14 06:54:42;;;;;;;6.32;1.60;;;10.90;96.70;;;;;;5061201;28;20521;-73
2023/04/14 06:57:10;;;;;;;6.70;1.77;;;11.20;96.70;;;;;;5054923;28;20098;-74
2023/04/14 06:59:40;;;;;;;3.88;1.30;;;11.40;96.70;;;;;;5044824;28;20668;-74
2023/04/14 07:02:08;;;;;;;4.22;1.30;;;11.40;96.70;;;;;;5063158;28;20044;-74
2023/04/14 07:04:36;;;;;;;2.50;0.90;;;11.30;96.70;;;;;;5060487;28;20048;-74
2023/04/14 07:07:04;;;;;;;4.10;1.40;;;11.20;96.70;;;;;;5063026;28;20040;-74
2023/04/14 07:09:33;;;;;;;3.85;1.33;;;11.50;96.70;;;;;;5070750;28;20410;-74
2023/04/14 07:12:01;;;;;;;3.00;1.10;;;11.70;96.70;;;;;;5059935;28;20071;-75
2023/04/14 07:14:31;;;;;;;3.30;1.40;;;11.70;96.70;;;;;;5055140;28;20046;-76
2023/04/14 07:17:01;;;;;;;5.30;1.67;;;11.80;96.70;;;;;;5074883;28;20502;-72
2023/04/14 07:19:30;;;;;;;3.33;1.15;;;11.90;96.70;;;;;;5054861;28;20048;-73
2023/04/14 07:21:58;;;;;;;2.85;1.10;;;12.00;96.70;;;;;;5064695;28;20051;-74
2023/04/14 07:24:27;;;;;;;2.10;1.10;;;12.00;96.70;;;;;;5050280;28;20069;-75
2023/04/14 07:26:55;;;;;;;3.90;0.88;;;12.00;96.70;;;;;;5054499;28;20093;-75
2023/04/14 07:29:23;;;;;;;3.65;0.77;;;12.10;96.70;;;;;;5071953;28;20051;-74
2023/04/14 07:31:51;;;;;;;6.25;1.33;;;12.20;96.70;;;;;;5069924;28;20040;-75
2023/04/14 07:34:22;;;;;;;2.63;0.90;;;12.30;96.70;;;;;;5060820;28;20075;-75
2023/04/14 07:36:51;;;;;;;4.75;1.30;;;12.40;96.70;;;;;;5066074;28;20048;-75
2023/04/14 07:39:20;;;;;;;3.47;1.10;;;12.30;96.70;;;;;;5067527;28;20052;-74
2023/04/14 07:41:50;;;;;;;4.35;1.00;;;12.30;96.70;;;;;;5053696;28;20429;-75
2023/04/14 07:44:19;;;;;;;1.92;0.70;;;12.30;96.70;;;;;;5059945;28;20064;-75
2023/04/14 07:46:47;;;;;;;3.97;0.82;;;12.30;96.70;;;;;;5066306;28;20044;-74
2023/04/14 07:49:16;;;;;;;7.35;1.10;;;12.20;96.70;;;;;;5073710;28;20044;-74
2023/04/14 07:51:45;;;;;;;11.48;1.20;;;12.20;96.70;;;;;;5070193;28;20127;-74
2023/04/14 07:54:15;;;;;;;4.45;0.95;;;12.30;96.70;;;;;;5072412;28;20219;-74
2023/04/14 07:56:43;;;;;;;47.72;5.47;;;12.30;96.70;;;;;;5062800;28;20047;-74
2023/04/14 07:59:11;;;;;;;18.65;2.45;;;12.20;96.70;;;;;;5073560;28;20032;-73
2023/04/14 08:01:39;;;;;;;14.90;2.22;;;12.10;96.70;;;;;;5064958;28;20048;-73
2023/04/14 08:04:08;;;;;;;8.77;1.38;;;12.20;96.70;;;;;;5058010;28;20041;-74
2023/04/14 08:06:36;;;;;;;4.28;1.05;;;12.30;96.70;;;;;;5065404;28;20494;-74
2023/04/14 08:09:05;;;;;;;2.63;0.80;;;12.40;96.70;;;;;;5064262;28;20509;-76
2023/04/14 08:11:33;;;;;;;1.40;0.70;;;12.40;96.70;;;;;;5073215;28;20041;-75
2023/04/14 08:14:03;;;;;;;3.20;1.00;;;12.60;96.70;;;;;;5068966;28;20542;-74
2023/04/14 08:16:35;;;;;;;6.45;1.13;;;12.60;96.70;;;;;;5066356;28;20051;-75
2023/04/14 08:19:04;;;;;;;7.18;1.63;;;12.80;96.70;;;;;;5074126;28;20051;-74
2023/04/14 08:21:32;;;;;;;6.85;1.27;;;12.90;96.70;;;;;;5070908;28;20703;-75
2023/04/14 08:24:00;;;;;;;2.58;0.98;;;13.00;96.70;;;;;;5080629;28;20044;-75
2023/04/14 08:26:29;;;;;;;5.40;1.00;;;13.00;96.70;;;;;;5067121;28;20048;-75
2023/04/14 08:28:57;;;;;;;5.28;0.95;;;13.10;96.70;;;;;;5061553;28;20152;-74
2023/04/14 08:31:26;;;;;;;2.05;1.13;;;13.10;96.70;;;;;;5071293;28;20060;-74
2023/04/14 08:33:54;;;;;;;2.30;0.88;;;13.10;96.70;;;;;;5078608;28;20043;-74
2023/04/14 08:36:23;;;;;;;1.60;0.90;;;13.10;96.70;;;;;;5074006;28;20044;-75
2023/04/14 08:38:52;;;;;;;2.33;1.10;;;13.10;96.70;;;;;;5063119;28;20045;-75
2023/04/14 08:41:21;;;;;;;2.00;0.95;;;13.20;96.70;;;;;;5071576;28;20040;-75
2023/04/14 08:43:51;;;;;;;2.42;1.40;;;13.20;96.70;;;;;;5064958;28;20162;-76
2023/04/14 08:46:20;;;;;;;4.20;1.85;;;13.30;96.70;;;;;;5064740;28;20059;-75
2023/04/14 08:48:51;;;;;;;4.93;1.30;;;13.30;96.70;;;;;;5061949;28;20071;-75
2023/04/14 08:51:31;;;;;;;4.82;1.48;;;13.30;96.70;;;;;;5072488;28;20044;-75
2023/04/14 08:54:00;;;;;;;3.97;1.80;;;13.40;96.70;;;;;;5073203;28;20045;-75
2023/04/14 08:56:32;;;;;;;3.25;1.42;;;13.60;96.70;;;;;;5063052;28;20131;-74
2023/04/14 08:59:02;;;;;;;4.22;1.58;;;13.70;96.70;;;;;;5063234;28;20048;-75
2023/04/14 09:01:31;;;;;;;3.05;1.38;;;13.80;96.70;;;;;;5071417;28;20051;-75
2023/04/14 09:04:03;;;;;;;5.25;1.63;;;13.80;96.70;;;;;;5064693;28;20139;-75
2023/04/14 09:06:33;;;;;;;2.25;1.50;;;13.90;96.70;;;;;;5063649;28;20048;-75
2023/04/14 09:09:04;;;;;;;4.07;1.35;;;13.80;96.70;;;;;;5041373;28;20055;-75
2023/04/14 09:11:32;;;;;;;2.65;1.38;;;13.90;96.70;;;;;;5069020;28;20517;-75
2023/04/14 09:14:02;;;;;;;4.72;1.48;;;13.90;96.70;;;;;;5065335;28;20128;-74
2023/04/14 09:16:32;;;;;;;1.95;1.23;;;13.90;96.70;;;;;;5063437;28;20486;-75
2023/04/14 09:19:00;;;;;;;2.00;1.30;;;13.70;96.70;;;;;;5071197;28;20049;-75
2023/04/14 09:21:37;;;;;;;3.92;2.25;;;13.70;96.70;;;;;;5059188;28;20533;-74
2023/04/14 09:24:28;;;;;;;2.75;1.70;;;13.90;96.70;;;;;;5058623;28;20513;-75
2023/04/14 09:27:02;;;;;;;2.22;1.75;;;13.90;96.70;;;;;;5070832;28;20052;-74
2023/04/14 09:29:32;;;;;;;4.30;1.83;;;13.80;96.70;;;;;;5071926;28;20057;-74
2023/04/14 09:32:01;;;;;;;3.53;1.70;;;13.90;96.70;;;;;;5072049;28;20090;-74
2023/04/14 09:34:29;;;;;;;2.38;1.40;;;14.10;96.70;;;;;;5058430;28;20595;-75
2023/04/14 09:37:05;;;;;;;3.95;1.75;;;14.00;96.70;;;;;;5061568;28;20044;-75
2023/04/14 09:39:33;;;;;;;3.33;1.63;;;14.20;96.70;;;;;;5062430;28;20866;-75
2023/04/14 09:42:02;;;;;;;2.33;1.50;;;14.30;96.70;;;;;;5063870;28;20041;-74
2023/04/14 09:44:32;;;;;;;2.33;1.50;;;14.50;96.70;;;;;;5060887;28;20040;-75
2023/04/14 09:47:04;;;;;;;3.50;1.67;;;14.50;96.70;;;;;;5062335;28;20570;-75
2023/04/14 09:49:33;;;;;;;4.95;1.58;;;14.60;96.70;;;;;;5064378;28;20055;-75
2023/04/14 09:52:05;;;;;;;3.67;1.10;;;14.50;96.70;;;;;;5068727;28;20098;-76
2023/04/14 09:54:33;;;;;;;3.53;1.35;;;14.30;96.70;;;;;;5069031;28;20040;-75
2023/04/14 09:57:02;;;;;;;4.50;1.50;;;14.40;96.70;;;;;;5064868;28;20903;-76
2023/04/14 09:59:35;;;;;;;4.28;1.33;;;14.50;96.70;;;;;;5070654;28;20052;-75
2023/04/14 10:02:05;;;;;;;2.78;1.63;;;14.80;96.70;;;;;;5057367;28;20101;-76
2023/04/14 10:04:34;;;;;;;5.47;1.50;;;14.90;96.70;;;;;;5050970;28;21152;-76
2023/04/14 10:07:09;;;;;;;3.38;1.48;;;15.00;96.70;;;;;;5061712;28;20059;-75
2023/04/14 10:09:39;;;;;;;2.85;1.40;;;15.10;96.70;;;;;;5069947;28;20052;-75
2023/04/14 10:12:09;;;;;;;4.85;2.00;;;15.30;96.70;;;;;;5061208;28;20509;-75
2023/04/14 10:14:39;;;;;;;2.65;1.50;;;15.30;96.70;;;;;;5063356;28;20049;-75
2023/04/14 10:17:07;;;;;;;2.47;1.75;;;15.40;96.70;;;;;;5061857;28;20048;-75
2023/04/14 10:19:37;;;;;;;3.10;1.60;;;15.60;96.70;;;;;;5069558;28;20071;-75
2023/04/14 10:22:05;;;;;;;5.20;1.80;;;15.70;96.70;;;;;;5045694;28;20055;-75
2023/04/14 10:24:35;;;;;;;4.72;1.52;;;15.90;96.70;;;;;;5053068;28;20914;-75
2023/04/14 10:27:04;;;;;;;2.83;1.50;;;16.10;96.70;;;;;;5056301;28;20707;-75
2023/04/14 10:29:32;;;;;;;3.20;1.80;;;16.00;96.70;;;;;;5061824;28;20088;-75
2023/04/14 10:32:04;;;;;;;2.78;1.65;;;15.80;96.70;;;;;;5063593;28;20083;-74
2023/04/14 10:34:34;;;;;;;3.92;1.65;;;15.90;96.70;;;;;;5063533;28;20055;-74
2023/04/14 10:37:12;;;;;;;3.95;2.08;;;16.30;96.70;;;;;;5060559;28;20091;-73
2023/04/14 10:39:41;;;;;;;3.58;1.88;;;16.60;96.70;;;;;;5076022;28;20054;-74
2023/04/14 10:42:09;;;;;;;2.75;1.33;;;16.60;96.70;;;;;;5057969;28;20052;-75
2023/04/14 10:44:38;;;;;;;2.67;1.27;;;16.80;96.70;;;;;;5062743;28;20489;-74
2023/04/14 10:47:07;;;;;;;3.35;1.45;;;17.10;96.70;;;;;;5061251;28;20036;-74
2023/04/14 10:49:37;;;;;;;3.08;1.50;;;17.10;96.70;;;;;;5059777;28;20522;-75
2023/04/14 10:52:30;;;;;;;3.75;1.58;;;17.20;96.70;;;;;;5060393;28;20087;-74
2023/04/14 10:55:06;;;;;;;2.58;1.25;;;17.60;96.70;;;;;;5069033;28;20544;-73
2023/04/14 10:57:41;;;;;;;2.25;1.30;;;17.80;96.70;;;;;;5044884;28;20057;-74
2023/04/14 11:00:25;;;;;;;2.80;1.13;;;17.70;96.70;;;;;;5066854;28;20097;-75
2023/04/14 11:03:02;;;;;;;2.75;1.55;;;17.70;96.70;;;;;;5042962;28;20571;-74
2023/04/14 11:05:33;;;;;;;2.15;1.30;;;17.70;96.70;;;;;;5061522;28;20051;-74
2023/04/14 11:08:11;;;;;;;2.30;1.20;;;17.80;96.70;;;;;;5062145;28;20048;-74
2023/04/14 11:10:41;;;;;;;3.95;1.10;;;17.90;96.70;;;;;;5065888;28;20493;-74
2023/04/14 11:13:11;;;;;;;2.60;1.27;;;18.00;96.70;;;;;;5064803;28;20044;-74
2023/04/14 11:15:43;;;;;;;2.75;1.20;;;17.90;96.70;;;;;;5062438;28;20044;-74
2023/04/14 11:18:15;;;;;;;1.83;1.30;;;17.80;96.70;;;;;;5037514;28;20052;-74
2023/04/14 11:20:44;;;;;;;1.98;1.00;;;17.80;96.70;;;;;;5052977;28;20078;-74
2023/04/14 11:23:15;;;;;;;2.40;0.95;;;17.80;96.70;;;;;;5062035;28;20043;-75
2023/04/14 11:25:44;;;;;;;1.85;0.70;;;17.90;96.70;;;;;;5062884;28;20033;-75
2023/04/14 11:28:12;;;;;;;1.08;0.55;;;18.00;96.70;;;;;;5062326;28;20097;-74
2023/04/14 11:30:41;;;;;;;1.13;0.60;;;18.00;96.70;;;;;;5061693;28;20045;-75
2023/04/14 11:33:09;;;;;;;2.17;0.50;;;18.00;96.70;;;;;;5061034;28;20051;-76
2023/04/14 11:35:41;;;;;;;2.65;0.43;;;18.30;96.70;;;;;;5063029;28;20514;-76
2023/04/14 11:38:13;;;;;;;8.48;0.90;;;18.40;96.70;;;;;;5056625;28;20045;-75
2023/04/14 11:40:47;;;;;;;2.05;0.70;;;18.60;96.70;;;;;;5061931;28;20608;-76
2023/04/14 11:43:15;;;;;;;1.52;0.50;;;18.20;96.70;;;;;;5054276;28;20047;-76
2023/04/14 11:45:45;;;;;;;1.60;0.50;;;18.10;96.70;;;;;;5060855;28;20094;-74
2023/04/14 11:48:16;;;;;;;3.60;0.95;;;18.20;96.70;;;;;;5062766;28;20090;-72
2023/04/14 11:50:47;;;;;;;0.77;0.32;;;18.10;96.70;;;;;;5058591;28;20505;-73
2023/04/14 11:53:16;;;;;;;1.30;0.45;;;17.90;96.70;;;;;;5059862;28;20381;-73
2023/04/14 11:55:45;;;;;;;2.05;0.57;;;18.00;96.70;;;;;;5060399;28;20609;-73
2023/04/14 11:58:15;;;;;;;1.40;0.52;;;18.00;96.70;;;;;;5060978;28;20885;-73
2023/04/14 12:00:43;;;;;;;3.03;0.60;;;18.10;96.70;;;;;;5060727;28;20055;-75
2023/04/14 12:03:11;;;;;;;0.82;0.38;;;18.30;96.70;;;;;;5061971;28;20490;-75
2023/04/14 12:05:40;;;;;;;1.35;0.65;;;18.50;96.70;;;;;;5069101;28;20050;-75
2023/04/14 12:08:11;;;;;;;0.60;0.30;;;18.40;96.70;;;;;;5068570;28;20044;-75
2023/04/14 12:10:45;;;;;;;0.70;0.40;;;18.20;96.70;;;;;;5070956;28;20452;-75
2023/04/14 12:13:13;;;;;;;0.88;0.40;;;18.10;96.70;;;;;;5070886;28;20127;-73
2023/04/14 12:15:41;;;;;;;1.85;0.40;;;18.00;96.70;;;;;;5063620;28;20040;-73
2023/04/14 12:18:12;;;;;;;1.50;0.60;;;18.00;96.70;;;;;;5064882;28;20563;-73
2023/04/14 12:20:41;;;;;;;0.60;0.30;;;18.10;96.70;;;;;;5071968;28;20062;-73
2023/04/14 12:23:11;;;;;;;1.30;0.60;;;18.20;96.70;;;;;;5065263;28;20056;-73
2023/04/14 12:25:40;;;;;;;0.90;0.55;;;18.20;96.70;;;;;;5064961;28;20044;-73
2023/04/14 12:28:08;;;;;;;0.80;0.50;;;18.10;96.70;;;;;;5063207;28;20052;-72
2023/04/14 12:30:37;;;;;;;2.15;0.60;;;18.00;96.70;;;;;;5063158;28;20056;-73
2023/04/14 12:33:10;;;;;;;2.33;0.60;;;17.90;96.70;;;;;;5073612;28;20040;-73
2023/04/14 12:35:39;;;;;;;0.60;0.50;;;17.80;96.70;;;;;;5053438;28;20044;-75
2023/04/14 12:38:13;;;;;;;1.33;0.70;;;17.50;96.70;;;;;;5064534;28;20485;-75
2023/04/14 12:40:44;;;;;;;3.03;0.70;;;17.40;96.70;;;;;;5063680;28;20125;-75
2023/04/14 12:43:15;;;;;;;1.48;0.90;;;17.30;96.70;;;;;;5073551;28;20058;-76
2023/04/14 12:45:44;;;;;;;2.22;0.70;;;17.40;96.70;;;;;;5070475;28;20040;-75
2023/04/14 12:48:14;;;;;;;2.20;0.60;;;17.80;96.70;;;;;;5070365;28;20086;-73
2023/04/14 12:50:43;;;;;;;1.23;0.50;;;18.20;96.70;;;;;;5068309;28;20048;-73
2023/04/14 12:53:26;;;;;;;1.35;0.80;;;18.20;96.70;;;;;;5057609;28;20820;-75
2023/04/14 12:56:05;;;;;;;2.10;0.60;;;18.30;96.70;;;;;;5062775;28;20060;-75
2023/04/14 12:58:35;;;;;;;1.40;0.40;;;18.80;96.70;;;;;;5063785;28;20036;-75
2023/04/14 13:01:05;;;;;;;0.35;0.15;;;18.70;96.70;;;;;;5064943;28;20056;-73
2023/04/14 13:03:43;;;;;;;1.58;0.30;;;18.60;96.70;;;;;;5079144;28;20049;-74
2023/04/14 13:06:16;;;;;;;1.25;0.30;;;18.50;96.70;;;;;;5064670;28;20040;-73
2023/04/14 13:08:48;;;;;;;1.15;0.28;;;18.20;96.70;;;;;;5071218;28;20132;-75
2023/04/14 13:11:17;;;;;;;5.32;0.50;;;18.30;96.70;;;;;;5059363;28;20044;-75
2023/04/14 13:13:46;;;;;;;1.15;0.30;;;18.30;96.70;;;;;;5066635;28;20045;-73
2023/04/14 13:16:15;;;;;;;2.15;0.40;;;18.30;96.70;;;;;;5063171;28;20123;-75
2023/04/14 13:18:45;;;;;;;2.30;0.40;;;18.40;96.70;;;;;;5064624;28;20044;-76
2023/04/14 13:21:14;;;;;;;2.00;0.45;;;18.60;96.70;;;;;;5072048;28;20143;-73
2023/04/14 13:23:42;;;;;;;1.30;0.40;;;18.50;96.70;;;;;;5069333;28;20044;-73
2023/04/14 13:26:12;;;;;;;1.30;0.30;;;18.60;96.70;;;;;;5073126;28;20040;-72
2023/04/14 13:28:40;;;;;;;2.45;0.20;;;18.60;96.70;;;;;;5062368;28;20052;-74
2023/04/14 13:31:11;;;;;;;0.63;0.20;;;18.90;96.70;;;;;;5060027;28;20059;-73
2023/04/14 13:33:40;;;;;;;1.02;0.20;;;19.20;96.70;;;;;;5046023;28;20114;-73
2023/04/14 13:36:08;;;;;;;1.73;0.20;;;19.40;96.70;;;;;;5064665;28;20052;-76
2023/04/14 13:38:36;;;;;;;0.88;0.30;;;19.30;96.70;;;;;;5071104;28;20048;-75
2023/04/14 13:41:05;;;;;;;0.70;0.20;;;18.90;96.70;;;;;;5070569;28;20057;-73
2023/04/14 13:43:35;;;;;;;2.78;0.43;;;18.90;96.70;;;;;;5064147;28;20052;-73
2023/04/14 13:46:05;;;;;;;3.22;0.38;;;19.20;96.70;;;;;;5050774;28;20061;-73
2023/04/14 13:48:33;;;;;;;3.47;0.50;;;19.40;96.70;;;;;;5062037;28;20045;-73
2023/04/14 13:51:01;;;;;;;1.42;0.45;;;19.50;96.70;;;;;;5068418;28;20040;-73
2023/04/14 13:53:29;;;;;;;1.50;0.50;;;18.90;96.70;;;;;;5071796;28;20047;-73
2023/04/14 13:55:58;;;;;;;2.88;0.45;;;18.60;96.70;;;;;;5062072;28;20049;-73
2023/04/14 13:58:26;;;;;;;2.85;0.60;;;19.00;96.70;;;;;;5063597;28;20093;-73
2023/04/14 14:00:55;;;;;;;3.92;0.60;;;19.30;96.70;;;;;;5078295;28;20136;-73
2023/04/14 14:03:24;;;;;;;5.25;0.82;;;19.70;96.70;;;;;;5080475;28;20044;-73
2023/04/14 14:05:54;;;;;;;4.55;1.00;;;19.70;96.70;;;;;;5070025;28;20063;-73
2023/04/14 14:08:22;;;;;;;4.25;0.93;;;19.50;96.70;;;;;;5057859;28;20518;-74
2023/04/14 14:10:51;;;;;;;3.58;0.90;;;19.70;96.70;;;;;;5068492;28;20041;-73
2023/04/14 14:13:20;;;;;;;5.13;0.88;;;20.00;96.70;;;;;;5063562;28;20127;-74
2023/04/14 14:15:48;;;;;;;3.45;1.00;;;19.90;96.70;;;;;;5073053;28;20047;-73
2023/04/14 14:18:18;;;;;;;4.88;0.63;;;20.20;96.70;;;;;;5069833;28;20138;-73
2023/04/14 14:20:46;;;;;;;1.55;0.40;;;20.30;96.70;;;;;;5072083;28;20805;-73
2023/04/14 14:23:15;;;;;;;2.83;0.80;;;20.50;96.70;;;;;;5070312;28;20668;-73
2023/04/14 14:25:44;;;;;;;3.60;0.60;;;20.00;96.70;;;;;;5068928;28;20044;-73
2023/04/14 14:28:12;;;;;;;3.22;0.52;;;19.30;96.70;;;;;;5058611;28;20032;-73
2023/04/14 14:30:41;;;;;;;1.88;0.40;;;18.90;96.70;;;;;;5070300;28;20070;-73
2023/04/14 14:33:09;;;;;;;1.67;0.40;;;19.30;96.70;;;;;;5073795;28;20647;-74
2023/04/14 14:35:39;;;;;;;1.40;0.30;;;19.60;96.70;;;;;;5070084;28;20052;-74
2023/04/14 14:38:07;;;;;;;5.50;0.75;;;19.90;96.70;;;;;;5053119;28;20101;-72
2023/04/14 14:40:35;;;;;;;2.80;0.85;;;19.50;96.70;;;;;;5075994;28;20127;-73
2023/04/14 14:43:04;;;;;;;3.58;1.10;;;19.10;96.70;;;;;;5063109;28;20099;-72
2023/04/14 14:45:32;;;;;;;4.20;0.55;;;18.60;96.70;;;;;;5060581;28;20598;-72
2023/04/14 14:48:01;;;;;;;4.53;1.15;;;18.30;96.70;;;;;;5054365;28;20044;-72
2023/04/14 14:50:29;;;;;;;4.45;1.15;;;18.30;96.70;;;;;;5069333;28;20055;-72
2023/04/14 14:52:58;;;;;;;2.67;1.00;;;18.60;96.70;;;;;;5061777;28;20128;-73
2023/04/14 14:55:27;;;;;;;5.18;0.77;;;18.40;96.70;;;;;;5062243;28;20452;-72
2023/04/14 14:57:55;;;;;;;6.13;1.17;;;18.10;96.70;;;;;;5064129;28;20044;-72
2023/04/14 15:00:23;;;;;;;4.65;0.85;;;17.90;96.70;;;;;;5044136;28;20125;-72
2023/04/14 15:02:52;;;;;;;7.82;0.90;;;17.80;96.70;;;;;;5058363;28;20044;-72
2023/04/14 15:05:20;;;;;;;5.38;1.02;;;17.80;96.70;;;;;;5061040;28;20498;-72
2023/04/14 15:07:49;;;;;;;5.03;0.98;;;17.50;96.70;;;;;;5060530;28;20453;-72
2023/04/14 15:10:19;;;;;;;4.88;0.80;;;18.90;96.70;;;;;;5060992;28;20056;-73
2023/04/14 15:12:47;;;;;;;6.93;1.20;;;19.80;96.70;;;;;;5058912;28;20063;-72
2023/04/14 15:15:18;;;;;;;5.53;1.27;;;20.40;96.70;;;;;;5053728;28;20045;-72
2023/04/14 15:17:47;;;;;;;7.13;1.40;;;21.00;96.70;;;;;;5069880;28;20054;-72
2023/04/14 15:20:15;;;;;;;7.22;1.30;;;21.10;96.70;;;;;;5070262;28;20044;-72
2023/04/14 15:22:44;;;;;;;6.13;1.30;;;21.20;96.70;;;;;;5069813;28;20400;-73
2023/04/14 15:25:12;;;;;;;3.72;1.10;;;21.00;96.70;;;;;;5052792;28;20047;-72
2023/04/14 15:27:42;;;;;;;5.55;1.35;;;21.40;96.70;;;;;;5062578;28;20528;-72
2023/04/14 15:30:10;;;;;;;7.07;1.15;;;21.30;96.70;;;;;;5061904;28;20060;-72
2023/04/14 15:32:39;;;;;;;6.28;1.63;;;21.70;96.70;;;;;;5061067;28;20051;-71
2023/04/14 15:35:08;;;;;;;6.13;1.52;;;21.60;96.70;;;;;;5060607;28;20052;-73
2023/04/14 15:37:36;;;;;;;5.45;1.48;;;22.00;96.70;;;;;;5069335;28;20050;-72
2023/04/14 15:40:07;;;;;;;9.07;1.50;;;22.40;96.70;;;;;;5061466;28;20048;-72
2023/04/14 15:42:35;;;;;;;7.60;1.15;;;22.80;96.70;;;;;;5061177;28;20571;-72